sensor_id;sensor_type;location;lat;lon;timestamp;temperature;humidity
38860;DHT22;24609;48.316;16.174;2023-08-31T00:01:49;14.80;99.90
38860;DHT22;24609;48.316;16.174;2023-08-31T00:04:15;14.90;99.90
38860;DHT22;24609;48.316;16.174;2023-08-31T00:06:41;14.90;99.90
38860;DHT22;24609;48.316;16.174;2023-08-31T00:09:07;14.90;99.90
38860;DHT22;24609;48.316;16.174;2023-08-31T00:11:35;14.90;99.90
38860;DHT22;24609;48.316;16.174;2023-08-31T00:14:01;14.90;99.90
38860;DHT22;24609;48.316;16.174;2023-08-31T00:16:27;14.90;99.90
38860;DHT22;24609;48.316;16.174;2023-08-31T00:18:53;14.80;99.90
38860;DHT22;24609;48.316;16.174;2023-08-31T00:21:21;14.80;99.90
38860;DHT22;24609;48.316;16.174;2023-08-31T00:23:46;14.80;99.90
38860;DHT22;24609;48.316;16.174;2023-08-31T00:26:12;14.70;99.90
38860;DHT22;24609;48.316;16.174;2023-08-31T00:28:38;14.70;99.90
38860;DHT22;24609;48.316;16.174;2023-08-31T00:31:04;14.70;99.90
38860;DHT22;24609;48.316;16.174;2023-08-31T00:33:30;14.70;99.90
38860;DHT22;24609;48.316;16.174;2023-08-31T00:35:59;14.70;99.90
38860;DHT22;24609;48.316;16.174;2023-08-31T00:38:27;14.70;99.90
38860;DHT22;24609;48.316;16.174;2023-08-31T00:40:52;14.70;99.90
38860;DHT22;24609;48.316;16.174;2023-08-31T00:43:19;14.70;99.90
38860;DHT22;24609;48.316;16.174;2023-08-31T00:45:46;14.60;99.90
38860;DHT22;24609;48.316;16.174;2023-08-31T00:48:17;14.60;99.90
38860;DHT22;24609;48.316;16.174;2023-08-31T00:50:45;14.60;99.90
38860;DHT22;24609;48.316;16.174;2023-08-31T00:53:11;14.60;99.90
38860;DHT22;24609;48.316;16.174;2023-08-31T00:55:37;14.60;99.90
38860;DHT22;24609;48.316;16.174;2023-08-31T00:58:06;14.60;99.90
38860;DHT22;24609;48.316;16.174;2023-08-31T01:08:52;14.60;99.90
38860;DHT22;24609;48.316;16.174;2023-08-31T01:14:00;14.50;99.90
38860;DHT22;24609;48.316;16.174;2023-08-31T01:16:30;14.50;99.90
38860;DHT22;24609;48.316;16.174;2023-08-31T01:18:59;14.50;99.90
38860;DHT22;24609;48.316;16.174;2023-08-31T01:21:32;14.60;99.90
38860;DHT22;24609;48.316;16.174;2023-08-31T01:24:01;14.50;99.90
38860;DHT22;24609;48.316;16.174;2023-08-31T01:26:27;14.50;99.90
38860;DHT22;24609;48.316;16.174;2023-08-31T01:28:55;14.50;99.90
38860;DHT22;24609;48.316;16.174;2023-08-31T01:31:21;14.50;99.90
38860;DHT22;24609;48.316;16.174;2023-08-31T01:33:47;14.50;99.90
38860;DHT22;24609;48.316;16.174;2023-08-31T01:36:42;14.40;99.90
38860;DHT22;24609;48.316;16.174;2023-08-31T01:39:21;14.40;99.90
38860;DHT22;24609;48.316;16.174;2023-08-31T01:41:56;14.40;99.90
38860;DHT22;24609;48.316;16.174;2023-08-31T01:44:24;14.30;99.90
38860;DHT22;24609;48.316;16.174;2023-08-31T01:46:54;14.40;99.90
38860;DHT22;24609;48.316;16.174;2023-08-31T01:49:20;14.40;99.90
38860;DHT22;24609;48.316;16.174;2023-08-31T01:51:46;14.40;99.90
38860;DHT22;24609;48.316;16.174;2023-08-31T01:54:12;14.40;99.90
38860;DHT22;24609;48.316;16.174;2023-08-31T01:56:38;14.40;99.90
38860;DHT22;24609;48.316;16.174;2023-08-31T01:59:04;14.40;99.90
38860;DHT22;24609;48.316;16.174;2023-08-31T02:01:32;14.40;99.90
38860;DHT22;24609;48.316;16.174;2023-08-31T02:03:57;14.40;99.90
38860;DHT22;24609;48.316;16.174;2023-08-31T02:06:23;14.40;99.90
38860;DHT22;24609;48.316;16.174;2023-08-31T02:08:49;14.50;99.90
38860;DHT22;24609;48.316;16.174;2023-08-31T02:11:14;14.50;99.90
38860;DHT22;24609;48.316;16.174;2023-08-31T02:13:41;14.50;99.90
38860;DHT22;24609;48.316;16.174;2023-08-31T02:16:07;14.40;99.90
38860;DHT22;24609;48.316;16.174;2023-08-31T02:18:33;14.40;99.90
38860;DHT22;24609;48.316;16.174;2023-08-31T02:20:58;14.40;99.90
38860;DHT22;24609;48.316;16.174;2023-08-31T02:23:24;14.30;99.90
38860;DHT22;24609;48.316;16.174;2023-08-31T02:25:50;14.40;99.90
38860;DHT22;24609;48.316;16.174;2023-08-31T02:28:15;14.40;99.90
38860;DHT22;24609;48.316;16.174;2023-08-31T02:30:45;14.40;99.90
38860;DHT22;24609;48.316;16.174;2023-08-31T02:33:11;14.40;99.90
38860;DHT22;24609;48.316;16.174;2023-08-31T02:35:36;14.40;99.90
38860;DHT22;24609;48.316;16.174;2023-08-31T02:38:02;14.40;99.90
38860;DHT22;24609;48.316;16.174;2023-08-31T02:40:28;14.40;99.90
38860;DHT22;24609;48.316;16.174;2023-08-31T02:42:53;14.40;99.90
38860;DHT22;24609;48.316;16.174;2023-08-31T02:45:19;14.40;99.90
38860;DHT22;24609;48.316;16.174;2023-08-31T02:47:45;14.40;99.90
38860;DHT22;24609;48.316;16.174;2023-08-31T02:50:10;14.40;99.90
38860;DHT22;24609;48.316;16.174;2023-08-31T02:52:36;14.40;99.90
38860;DHT22;24609;48.316;16.174;2023-08-31T02:55:02;14.40;99.90
38860;DHT22;24609;48.316;16.174;2023-08-31T02:57:27;14.30;99.90
38860;DHT22;24609;48.316;16.174;2023-08-31T02:59:53;14.30;99.90
38860;DHT22;24609;48.316;16.174;2023-08-31T03:02:19;14.30;99.90
38860;DHT22;24609;48.316;16.174;2023-08-31T03:04:45;14.40;99.90
38860;DHT22;24609;48.316;16.174;2023-08-31T03:07:10;14.40;99.90
38860;DHT22;24609;48.316;16.174;2023-08-31T03:09:39;14.40;99.90
38860;DHT22;24609;48.316;16.174;2023-08-31T03:12:05;14.40;99.90
38860;DHT22;24609;48.316;16.174;2023-08-31T03:14:31;14.30;99.90
38860;DHT22;24609;48.316;16.174;2023-08-31T03:16:56;14.30;99.90
38860;DHT22;24609;48.316;16.174;2023-08-31T03:19:22;14.20;99.90
38860;DHT22;24609;48.316;16.174;2023-08-31T03:21:48;14.20;99.90
38860;DHT22;24609;48.316;16.174;2023-08-31T03:24:13;14.20;99.90
38860;DHT22;24609;48.316;16.174;2023-08-31T03:26:39;14.20;99.90
38860;DHT22;24609;48.316;16.174;2023-08-31T03:29:05;14.20;99.90
38860;DHT22;24609;48.316;16.174;2023-08-31T03:31:30;14.10;99.90
38860;DHT22;24609;48.316;16.174;2023-08-31T03:33:57;14.20;99.90
38860;DHT22;24609;48.316;16.174;2023-08-31T03:36:23;14.20;99.90
38860;DHT22;24609;48.316;16.174;2023-08-31T03:38:49;14.10;99.90
38860;DHT22;24609;48.316;16.174;2023-08-31T03:41:15;14.10;99.90
38860;DHT22;24609;48.316;16.174;2023-08-31T03:43:40;14.10;99.90
38860;DHT22;24609;48.316;16.174;2023-08-31T03:46:06;14.00;99.90
38860;DHT22;24609;48.316;16.174;2023-08-31T03:48:32;14.00;99.90
38860;DHT22;24609;48.316;16.174;2023-08-31T03:50:58;13.90;99.90
38860;DHT22;24609;48.316;16.174;2023-08-31T03:53:23;13.90;99.90
38860;DHT22;24609;48.316;16.174;2023-08-31T03:55:49;13.80;99.90
38860;DHT22;24609;48.316;16.174;2023-08-31T03:58:15;13.80;99.90
38860;DHT22;24609;48.316;16.174;2023-08-31T04:00:42;13.80;99.90
38860;DHT22;24609;48.316;16.174;2023-08-31T04:03:09;13.70;99.90
38860;DHT22;24609;48.316;16.174;2023-08-31T04:05:34;13.70;99.90
38860;DHT22;24609;48.316;16.174;2023-08-31T04:08:01;13.60;99.90
38860;DHT22;24609;48.316;16.174;2023-08-31T04:10:28;13.60;99.90
38860;DHT22;24609;48.316;16.174;2023-08-31T04:12:55;13.60;99.90
38860;DHT22;24609;48.316;16.174;2023-08-31T04:15:21;13.60;99.90
38860;DHT22;24609;48.316;16.174;2023-08-31T04:17:47;13.50;99.90
38860;DHT22;24609;48.316;16.174;2023-08-31T04:20:13;13.40;99.90
38860;DHT22;24609;48.316;16.174;2023-08-31T04:22:38;13.40;99.90
38860;DHT22;24609;48.316;16.174;2023-08-31T04:25:04;13.30;99.90
38860;DHT22;24609;48.316;16.174;2023-08-31T04:27:30;13.40;99.90
38860;DHT22;24609;48.316;16.174;2023-08-31T04:30:00;13.40;99.90
38860;DHT22;24609;48.316;16.174;2023-08-31T04:32:26;13.40;99.90
38860;DHT22;24609;48.316;16.174;2023-08-31T04:34:52;13.40;99.90
38860;DHT22;24609;48.316;16.174;2023-08-31T04:37:17;13.40;99.90
38860;DHT22;24609;48.316;16.174;2023-08-31T04:39:43;13.40;99.90
38860;DHT22;24609;48.316;16.174;2023-08-31T04:42:09;13.40;99.90
38860;DHT22;24609;48.316;16.174;2023-08-31T04:44:34;13.40;99.90
38860;DHT22;24609;48.316;16.174;2023-08-31T04:47:01;13.50;99.90
38860;DHT22;24609;48.316;16.174;2023-08-31T04:49:26;13.40;99.90
38860;DHT22;24609;48.316;16.174;2023-08-31T04:51:52;13.40;99.90
38860;DHT22;24609;48.316;16.174;2023-08-31T04:54:18;13.40;99.90
38860;DHT22;24609;48.316;16.174;2023-08-31T04:56:44;13.50;99.90
38860;DHT22;24609;48.316;16.174;2023-08-31T04:59:09;13.60;99.90
38860;DHT22;24609;48.316;16.174;2023-08-31T05:01:35;13.60;99.90
38860;DHT22;24609;48.316;16.174;2023-08-31T05:04:03;13.60;99.90
38860;DHT22;24609;48.316;16.174;2023-08-31T05:06:29;13.60;99.90
38860;DHT22;24609;48.316;16.174;2023-08-31T05:08:54;13.70;99.90
38860;DHT22;24609;48.316;16.174;2023-08-31T05:11:20;13.80;99.90
38860;DHT22;24609;48.316;16.174;2023-08-31T05:13:47;13.90;99.90
38860;DHT22;24609;48.316;16.174;2023-08-31T05:16:14;14.00;99.90
38860;DHT22;24609;48.316;16.174;2023-08-31T05:18:39;14.10;99.90
38860;DHT22;24609;48.316;16.174;2023-08-31T05:21:08;14.10;99.90
38860;DHT22;24609;48.316;16.174;2023-08-31T05:23:34;14.20;99.90
38860;DHT22;24609;48.316;16.174;2023-08-31T05:26:00;14.30;99.90
38860;DHT22;24609;48.316;16.174;2023-08-31T05:28:27;14.50;99.90
38860;DHT22;24609;48.316;16.174;2023-08-31T05:30:55;14.70;99.90
38860;DHT22;24609;48.316;16.174;2023-08-31T05:33:21;14.80;99.90
38860;DHT22;24609;48.316;16.174;2023-08-31T05:35:54;15.00;99.90
38860;DHT22;24609;48.316;16.174;2023-08-31T05:38:20;15.10;99.90
38860;DHT22;24609;48.316;16.174;2023-08-31T05:40:46;15.20;99.90
38860;DHT22;24609;48.316;16.174;2023-08-31T05:43:15;15.30;99.90
38860;DHT22;24609;48.316;16.174;2023-08-31T05:45:42;15.30;99.90
38860;DHT22;24609;48.316;16.174;2023-08-31T05:48:08;15.30;99.90
38860;DHT22;24609;48.316;16.174;2023-08-31T05:50:34;15.40;99.90
38860;DHT22;24609;48.316;16.174;2023-08-31T05:53:02;15.70;99.90
38860;DHT22;24609;48.316;16.174;2023-08-31T05:55:28;15.90;99.90
38860;DHT22;24609;48.316;16.174;2023-08-31T05:57:54;16.20;99.90
38860;DHT22;24609;48.316;16.174;2023-08-31T06:00:19;16.40;99.90
38860;DHT22;24609;48.316;16.174;2023-08-31T06:02:45;16.50;99.90
38860;DHT22;24609;48.316;16.174;2023-08-31T06:05:11;16.70;99.90
38860;DHT22;24609;48.316;16.174;2023-08-31T06:07:42;17.10;99.90
38860;DHT22;24609;48.316;16.174;2023-08-31T06:10:08;17.50;99.90
38860;DHT22;24609;48.316;16.174;2023-08-31T06:12:34;17.70;99.90
38860;DHT22;24609;48.316;16.174;2023-08-31T06:15:00;18.00;99.90
38860;DHT22;24609;48.316;16.174;2023-08-31T06:17:26;18.20;99.90
38860;DHT22;24609;48.316;16.174;2023-08-31T06:19:51;18.40;99.90
38860;DHT22;24609;48.316;16.174;2023-08-31T06:22:17;18.50;99.90
38860;DHT22;24609;48.316;16.174;2023-08-31T06:24:43;18.50;99.90
38860;DHT22;24609;48.316;16.174;2023-08-31T06:27:12;18.70;99.90
38860;DHT22;24609;48.316;16.174;2023-08-31T06:29:38;19.40;99.90
38860;DHT22;24609;48.316;16.174;2023-08-31T06:32:04;19.60;99.90
38860;DHT22;24609;48.316;16.174;2023-08-31T06:34:30;18.90;99.90
38860;DHT22;24609;48.316;16.174;2023-08-31T06:36:56;18.30;99.90
38860;DHT22;24609;48.316;16.174;2023-08-31T06:39:24;18.00;99.90
38860;DHT22;24609;48.316;16.174;2023-08-31T06:41:49;17.80;99.90
38860;DHT22;24609;48.316;16.174;2023-08-31T06:44:15;17.70;99.90
38860;DHT22;24609;48.316;16.174;2023-08-31T06:46:42;17.90;99.90
38860;DHT22;24609;48.316;16.174;2023-08-31T06:49:08;17.90;99.90
38860;DHT22;24609;48.316;16.174;2023-08-31T06:51:34;17.90;99.90
38860;DHT22;24609;48.316;16.174;2023-08-31T06:54:00;18.00;99.90
38860;DHT22;24609;48.316;16.174;2023-08-31T06:56:35;18.20;99.90
38860;DHT22;24609;48.316;16.174;2023-08-31T06:59:01;18.70;99.90
38860;DHT22;24609;48.316;16.174;2023-08-31T07:01:28;19.90;99.90
38860;DHT22;24609;48.316;16.174;2023-08-31T07:03:55;21.50;99.90
38860;DHT22;24609;48.316;16.174;2023-08-31T07:06:21;21.90;99.90
38860;DHT22;24609;48.316;16.174;2023-08-31T07:08:46;21.90;99.90
38860;DHT22;24609;48.316;16.174;2023-08-31T07:11:13;20.90;99.90
38860;DHT22;24609;48.316;16.174;2023-08-31T07:13:40;20.50;99.90
38860;DHT22;24609;48.316;16.174;2023-08-31T07:16:06;20.50;99.90
38860;DHT22;24609;48.316;16.174;2023-08-31T07:18:31;20.70;99.90
38860;DHT22;24609;48.316;16.174;2023-08-31T07:20:57;20.60;99.90
38860;DHT22;24609;48.316;16.174;2023-08-31T07:23:23;20.80;99.90
38860;DHT22;24609;48.316;16.174;2023-08-31T07:25:49;20.50;99.90
38860;DHT22;24609;48.316;16.174;2023-08-31T07:28:15;20.20;99.90
38860;DHT22;24609;48.316;16.174;2023-08-31T07:30:40;20.30;99.90
38860;DHT22;24609;48.316;16.174;2023-08-31T07:33:06;20.90;99.90
38860;DHT22;24609;48.316;16.174;2023-08-31T07:35:32;21.40;99.90
38860;DHT22;24609;48.316;16.174;2023-08-31T07:37:58;21.10;99.90
38860;DHT22;24609;48.316;16.174;2023-08-31T07:40:24;21.20;99.90
38860;DHT22;24609;48.316;16.174;2023-08-31T07:42:51;21.40;99.90
38860;DHT22;24609;48.316;16.174;2023-08-31T07:45:20;21.40;99.90
38860;DHT22;24609;48.316;16.174;2023-08-31T07:47:46;21.60;99.90
38860;DHT22;24609;48.316;16.174;2023-08-31T07:50:11;21.50;99.90
38860;DHT22;24609;48.316;16.174;2023-08-31T07:52:37;21.90;99.90
38860;DHT22;24609;48.316;16.174;2023-08-31T07:55:03;22.10;99.90
38860;DHT22;24609;48.316;16.174;2023-08-31T07:57:29;22.10;99.90
38860;DHT22;24609;48.316;16.174;2023-08-31T07:59:55;22.60;99.90
38860;DHT22;24609;48.316;16.174;2023-08-31T08:02:21;22.80;97.10
38860;DHT22;24609;48.316;16.174;2023-08-31T08:04:47;22.60;97.50
38860;DHT22;24609;48.316;16.174;2023-08-31T08:07:12;22.80;95.90
38860;DHT22;24609;48.316;16.174;2023-08-31T08:09:38;23.40;96.50
38860;DHT22;24609;48.316;16.174;2023-08-31T08:12:04;23.40;93.70
38860;DHT22;24609;48.316;16.174;2023-08-31T08:14:30;23.80;92.20
38860;DHT22;24609;48.316;16.174;2023-08-31T08:16:55;24.40;91.90
38860;DHT22;24609;48.316;16.174;2023-08-31T08:19:24;24.70;90.70
38860;DHT22;24609;48.316;16.174;2023-08-31T08:21:50;25.00;90.20
38860;DHT22;24609;48.316;16.174;2023-08-31T08:24:16;26.10;83.90
38860;DHT22;24609;48.316;16.174;2023-08-31T08:26:43;26.30;79.50
38860;DHT22;24609;48.316;16.174;2023-08-31T08:29:08;26.90;68.70
38860;DHT22;24609;48.316;16.174;2023-08-31T08:31:34;26.90;67.50
38860;DHT22;24609;48.316;16.174;2023-08-31T08:34:00;26.70;65.80
38860;DHT22;24609;48.316;16.174;2023-08-31T08:36:26;25.80;68.10
38860;DHT22;24609;48.316;16.174;2023-08-31T08:38:52;25.90;69.20
38860;DHT22;24609;48.316;16.174;2023-08-31T08:41:23;27.10;69.50
38860;DHT22;24609;48.316;16.174;2023-08-31T08:43:50;27.30;64.40
38860;DHT22;24609;48.316;16.174;2023-08-31T08:46:16;27.80;62.70
38860;DHT22;24609;48.316;16.174;2023-08-31T08:48:42;28.60;59.10
38860;DHT22;24609;48.316;16.174;2023-08-31T08:51:10;27.40;60.50
38860;DHT22;24609;48.316;16.174;2023-08-31T08:53:37;28.20;59.20
38860;DHT22;24609;48.316;16.174;2023-08-31T08:56:04;27.60;59.60
38860;DHT22;24609;48.316;16.174;2023-08-31T08:58:30;28.60;56.90
38860;DHT22;24609;48.316;16.174;2023-08-31T09:00:56;27.00;58.50
38860;DHT22;24609;48.316;16.174;2023-08-31T09:03:23;27.70;58.60
38860;DHT22;24609;48.316;16.174;2023-08-31T09:05:50;26.30;58.50
38860;DHT22;24609;48.316;16.174;2023-08-31T09:08:16;25.40;61.30
38860;DHT22;24609;48.316;16.174;2023-08-31T09:10:43;25.00;63.50
38860;DHT22;24609;48.316;16.174;2023-08-31T09:13:13;24.30;66.90
38860;DHT22;24609;48.316;16.174;2023-08-31T09:15:45;23.10;70.20
38860;DHT22;24609;48.316;16.174;2023-08-31T09:18:22;22.50;76.50
38860;DHT22;24609;48.316;16.174;2023-08-31T09:20:48;22.10;79.10
38860;DHT22;24609;48.316;16.174;2023-08-31T09:23:15;24.80;71.70
38860;DHT22;24609;48.316;16.174;2023-08-31T09:25:51;27.10;61.60
38860;DHT22;24609;48.316;16.174;2023-08-31T09:28:25;27.50;56.90
38860;DHT22;24609;48.316;16.174;2023-08-31T09:31:05;27.00;57.20
38860;DHT22;24609;48.316;16.174;2023-08-31T09:33:31;27.70;56.30
38860;DHT22;24609;48.316;16.174;2023-08-31T09:35:59;28.10;57.00
38860;DHT22;24609;48.316;16.174;2023-08-31T09:38:26;29.50;50.50
38860;DHT22;24609;48.316;16.174;2023-08-31T09:41:03;29.90;50.00
38860;DHT22;24609;48.316;16.174;2023-08-31T09:43:29;29.70;47.00
38860;DHT22;24609;48.316;16.174;2023-08-31T09:45:55;31.10;42.60
38860;DHT22;24609;48.316;16.174;2023-08-31T09:48:22;30.50;41.70
38860;DHT22;24609;48.316;16.174;2023-08-31T09:50:48;31.40;41.00
38860;DHT22;24609;48.316;16.174;2023-08-31T09:53:17;30.10;40.70
38860;DHT22;24609;48.316;16.174;2023-08-31T09:55:47;32.20;36.80
38860;DHT22;24609;48.316;16.174;2023-08-31T09:58:18;30.80;35.50
38860;DHT22;24609;48.316;16.174;2023-08-31T10:00:46;28.60;37.40
38860;DHT22;24609;48.316;16.174;2023-08-31T10:03:12;28.80;39.90
38860;DHT22;24609;48.316;16.174;2023-08-31T10:05:43;28.50;37.10
38860;DHT22;24609;48.316;16.174;2023-08-31T10:08:09;28.50;40.20
38860;DHT22;24609;48.316;16.174;2023-08-31T10:10:37;28.30;39.80
38860;DHT22;24609;48.316;16.174;2023-08-31T10:13:04;27.40;39.60
38860;DHT22;24609;48.316;16.174;2023-08-31T10:15:37;27.80;41.40
38860;DHT22;24609;48.316;16.174;2023-08-31T10:18:06;27.70;40.70
38860;DHT22;24609;48.316;16.174;2023-08-31T10:20:33;29.30;40.00
38860;DHT22;24609;48.316;16.174;2023-08-31T10:23:03;30.20;36.20
38860;DHT22;24609;48.316;16.174;2023-08-31T10:28:24;29.70;35.50
38860;DHT22;24609;48.316;16.174;2023-08-31T10:31:14;32.20;33.50
38860;DHT22;24609;48.316;16.174;2023-08-31T10:34:04;31.50;30.90
38860;DHT22;24609;48.316;16.174;2023-08-31T10:36:40;32.50;31.30
38860;DHT22;24609;48.316;16.174;2023-08-31T10:39:12;32.60;29.20
38860;DHT22;24609;48.316;16.174;2023-08-31T10:41:39;31.10;29.70
38860;DHT22;24609;48.316;16.174;2023-08-31T10:44:24;31.70;29.10
38860;DHT22;24609;48.316;16.174;2023-08-31T10:46:51;32.70;28.50
38860;DHT22;24609;48.316;16.174;2023-08-31T10:49:18;33.40;28.10
38860;DHT22;24609;48.316;16.174;2023-08-31T10:51:55;31.50;27.80
38860;DHT22;24609;48.316;16.174;2023-08-31T10:54:23;31.30;29.30
38860;DHT22;24609;48.316;16.174;2023-08-31T10:59:25;32.30;26.30
38860;DHT22;24609;48.316;16.174;2023-08-31T11:01:55;33.00;25.80
38860;DHT22;24609;48.316;16.174;2023-08-31T11:04:25;30.60;26.20
38860;DHT22;24609;48.316;16.174;2023-08-31T11:07:15;29.80;26.80
38860;DHT22;24609;48.316;16.174;2023-08-31T11:09:42;30.00;26.60
38860;DHT22;24609;48.316;16.174;2023-08-31T11:12:08;31.40;26.60
38860;DHT22;24609;48.316;16.174;2023-08-31T11:14:34;31.60;25.20
38860;DHT22;24609;48.316;16.174;2023-08-31T11:17:01;31.70;25.90
38860;DHT22;24609;48.316;16.174;2023-08-31T11:19:28;32.20;23.60
38860;DHT22;24609;48.316;16.174;2023-08-31T11:21:57;32.20;23.40
38860;DHT22;24609;48.316;16.174;2023-08-31T11:24:23;31.00;23.40
38860;DHT22;24609;48.316;16.174;2023-08-31T11:26:53;30.70;24.10
38860;DHT22;24609;48.316;16.174;2023-08-31T11:29:19;30.80;24.70
38860;DHT22;24609;48.316;16.174;2023-08-31T11:31:44;31.20;24.40
38860;DHT22;24609;48.316;16.174;2023-08-31T11:34:15;30.90;24.80
38860;DHT22;24609;48.316;16.174;2023-08-31T11:36:46;27.20;26.80
38860;DHT22;24609;48.316;16.174;2023-08-31T11:39:12;25.60;31.30
38860;DHT22;24609;48.316;16.174;2023-08-31T11:41:38;25.10;31.80
38860;DHT22;24609;48.316;16.174;2023-08-31T11:44:11;25.40;32.60
38860;DHT22;24609;48.316;16.174;2023-08-31T11:46:38;25.60;32.60
38860;DHT22;24609;48.316;16.174;2023-08-31T11:49:05;26.40;33.40
38860;DHT22;24609;48.316;16.174;2023-08-31T11:51:33;27.20;32.10
38860;DHT22;24609;48.316;16.174;2023-08-31T11:54:02;27.50;30.40
38860;DHT22;24609;48.316;16.174;2023-08-31T11:56:38;28.20;29.70
38860;DHT22;24609;48.316;16.174;2023-08-31T11:59:08;32.20;25.20
38860;DHT22;24609;48.316;16.174;2023-08-31T12:01:40;34.40;20.90
38860;DHT22;24609;48.316;16.174;2023-08-31T12:04:13;31.10;22.10
38860;DHT22;24609;48.316;16.174;2023-08-31T12:06:40;31.90;23.70
38860;DHT22;24609;48.316;16.174;2023-08-31T12:09:10;32.10;23.80
38860;DHT22;24609;48.316;16.174;2023-08-31T12:11:36;34.60;20.30
38860;DHT22;24609;48.316;16.174;2023-08-31T12:14:03;34.20;19.30
38860;DHT22;24609;48.316;16.174;2023-08-31T12:16:35;32.70;20.10
38860;DHT22;24609;48.316;16.174;2023-08-31T12:19:04;31.30;21.50
38860;DHT22;24609;48.316;16.174;2023-08-31T12:21:33;29.80;25.00
38860;DHT22;24609;48.316;16.174;2023-08-31T12:23:59;27.00;26.40
38860;DHT22;24609;48.316;16.174;2023-08-31T12:26:28;25.60;29.10
38860;DHT22;24609;48.316;16.174;2023-08-31T12:28:54;26.00;29.20
38860;DHT22;24609;48.316;16.174;2023-08-31T12:31:20;26.30;29.20
38860;DHT22;24609;48.316;16.174;2023-08-31T12:33:45;26.50;28.00
38860;DHT22;24609;48.316;16.174;2023-08-31T12:36:12;26.70;27.90
38860;DHT22;24609;48.316;16.174;2023-08-31T12:38:38;25.60;29.20
38860;DHT22;24609;48.316;16.174;2023-08-31T12:41:03;26.10;30.80
38860;DHT22;24609;48.316;16.174;2023-08-31T12:43:29;26.10;29.60
38860;DHT22;24609;48.316;16.174;2023-08-31T12:45:55;27.10;29.10
38860;DHT22;24609;48.316;16.174;2023-08-31T12:48:21;29.00;25.90
38860;DHT22;24609;48.316;16.174;2023-08-31T12:50:47;27.10;29.00
38860;DHT22;24609;48.316;16.174;2023-08-31T12:53:14;26.40;30.00
38860;DHT22;24609;48.316;16.174;2023-08-31T12:55:40;25.30;30.20
38860;DHT22;24609;48.316;16.174;2023-08-31T12:58:05;25.20;31.70
38860;DHT22;24609;48.316;16.174;2023-08-31T13:00:31;25.10;31.60
38860;DHT22;24609;48.316;16.174;2023-08-31T13:02:56;26.40;31.80
38860;DHT22;24609;48.316;16.174;2023-08-31T13:05:22;28.70;27.80
38860;DHT22;24609;48.316;16.174;2023-08-31T13:07:48;30.00;25.80
38860;DHT22;24609;48.316;16.174;2023-08-31T13:10:14;30.60;23.80
38860;DHT22;24609;48.316;16.174;2023-08-31T13:12:39;31.50;23.20
38860;DHT22;24609;48.316;16.174;2023-08-31T13:15:05;30.40;21.60
38860;DHT22;24609;48.316;16.174;2023-08-31T13:17:33;31.80;21.80
38860;DHT22;24609;48.316;16.174;2023-08-31T13:19:59;31.10;22.90
38860;DHT22;24609;48.316;16.174;2023-08-31T13:22:25;32.30;21.20
38860;DHT22;24609;48.316;16.174;2023-08-31T13:24:51;31.60;20.10
38860;DHT22;24609;48.316;16.174;2023-08-31T13:27:17;31.50;20.30
38860;DHT22;24609;48.316;16.174;2023-08-31T13:29:43;31.00;20.40
38860;DHT22;24609;48.316;16.174;2023-08-31T13:32:09;31.00;20.70
38860;DHT22;24609;48.316;16.174;2023-08-31T13:34:35;32.40;21.50
38860;DHT22;24609;48.316;16.174;2023-08-31T13:37:02;33.60;18.20
38860;DHT22;24609;48.316;16.174;2023-08-31T13:39:33;33.40;18.70
38860;DHT22;24609;48.316;16.174;2023-08-31T13:41:59;33.90;17.60
38860;DHT22;24609;48.316;16.174;2023-08-31T13:44:27;34.40;17.20
38860;DHT22;24609;48.316;16.174;2023-08-31T13:46:53;33.00;16.50
38860;DHT22;24609;48.316;16.174;2023-08-31T13:49:18;32.00;19.60
38860;DHT22;24609;48.316;16.174;2023-08-31T13:51:44;31.60;20.00
38860;DHT22;24609;48.316;16.174;2023-08-31T13:54:11;31.50;18.90
38860;DHT22;24609;48.316;16.174;2023-08-31T13:56:37;32.80;18.70
38860;DHT22;24609;48.316;16.174;2023-08-31T13:59:03;34.40;16.60
38860;DHT22;24609;48.316;16.174;2023-08-31T14:01:29;33.20;17.50
38860;DHT22;24609;48.316;16.174;2023-08-31T14:03:55;30.70;19.00
38860;DHT22;24609;48.316;16.174;2023-08-31T14:06:21;27.20;23.30
38860;DHT22;24609;48.316;16.174;2023-08-31T14:08:47;25.20;27.30
38860;DHT22;24609;48.316;16.174;2023-08-31T14:11:14;24.40;28.70
38860;DHT22;24609;48.316;16.174;2023-08-31T14:13:39;25.40;28.20
38860;DHT22;24609;48.316;16.174;2023-08-31T14:16:06;28.70;23.10
38860;DHT22;24609;48.316;16.174;2023-08-31T14:18:32;30.50;20.20
38860;DHT22;24609;48.316;16.174;2023-08-31T14:20:58;30.70;19.40
38860;DHT22;24609;48.316;16.174;2023-08-31T14:23:25;32.60;18.00
38860;DHT22;24609;48.316;16.174;2023-08-31T14:25:51;33.80;17.10
38860;DHT22;24609;48.316;16.174;2023-08-31T14:28:16;32.30;16.80
38860;DHT22;24609;48.316;16.174;2023-08-31T14:30:42;30.70;19.20
38860;DHT22;24609;48.316;16.174;2023-08-31T14:33:08;29.90;19.40
38860;DHT22;24609;48.316;16.174;2023-08-31T14:35:37;29.70;20.10
38860;DHT22;24609;48.316;16.174;2023-08-31T14:38:03;29.30;20.50
38860;DHT22;24609;48.316;16.174;2023-08-31T14:40:29;27.90;22.30
38860;DHT22;24609;48.316;16.174;2023-08-31T14:42:55;25.60;24.80
38860;DHT22;24609;48.316;16.174;2023-08-31T14:45:20;24.50;27.10
38860;DHT22;24609;48.316;16.174;2023-08-31T14:47:46;23.80;29.50
38860;DHT22;24609;48.316;16.174;2023-08-31T14:50:11;23.60;30.40
38860;DHT22;24609;48.316;16.174;2023-08-31T14:52:37;23.50;30.60
38860;DHT22;24609;48.316;16.174;2023-08-31T14:55:03;23.40;31.50
38860;DHT22;24609;48.316;16.174;2023-08-31T14:57:30;23.30;31.50
38860;DHT22;24609;48.316;16.174;2023-08-31T14:59:55;23.10;31.10
38860;DHT22;24609;48.316;16.174;2023-08-31T15:02:24;23.00;32.70
38860;DHT22;24609;48.316;16.174;2023-08-31T15:04:50;22.80;33.10
38860;DHT22;24609;48.316;16.174;2023-08-31T15:07:16;22.70;33.60
38860;DHT22;24609;48.316;16.174;2023-08-31T15:09:43;22.80;35.00
38860;DHT22;24609;48.316;16.174;2023-08-31T15:12:09;22.70;32.10
38860;DHT22;24609;48.316;16.174;2023-08-31T15:14:34;22.40;31.80
38860;DHT22;24609;48.316;16.174;2023-08-31T15:17:00;22.40;34.10
38860;DHT22;24609;48.316;16.174;2023-08-31T15:19:26;22.20;32.70
38860;DHT22;24609;48.316;16.174;2023-08-31T15:21:51;22.20;33.20
38860;DHT22;24609;48.316;16.174;2023-08-31T15:24:17;22.30;34.70
38860;DHT22;24609;48.316;16.174;2023-08-31T15:26:42;22.10;33.30
38860;DHT22;24609;48.316;16.174;2023-08-31T15:29:11;22.00;33.00
38860;DHT22;24609;48.316;16.174;2023-08-31T15:31:37;22.00;33.80